createdAt,value
2019-03-20T00:00:38.805Z,86.10
2019-03-20T00:03:48.244Z,87.25
2019-03-20T00:06:59.302Z,85.73
2019-03-20T00:10:08.720Z,86.98
2019-03-20T00:13:16.443Z,88.82
2019-03-20T00:16:25.114Z,88.08
2019-03-20T00:19:33.746Z,88.61
2019-03-20T00:22:43.096Z,84.43
2019-03-20T00:25:55.724Z,84.35
2019-03-20T00:29:05.000Z,85.63
2019-03-20T00:32:13.092Z,85.43
2019-03-20T00:35:21.382Z,83.63
2019-03-20T00:38:29.322Z,84.30
2019-03-20T00:41:37.372Z,84.96
2019-03-20T00:44:45.178Z,89.46
2019-03-20T00:47:53.861Z,86.73
2019-03-20T00:51:04.180Z,86.94
2019-03-20T00:54:12.100Z,86.08
2019-03-20T00:57:20.940Z,87.51
2019-03-20T01:00:30.041Z,87.06
2019-03-20T01:03:38.142Z,87.90
2019-03-20T01:06:47.821Z,86.37
2019-03-20T01:09:56.266Z,87.58
2019-03-20T01:13:04.850Z,88.63
2019-03-20T01:16:13.296Z,86.58
2019-03-20T01:19:24.840Z,88.21
2019-03-20T01:22:33.709Z,86.70
2019-03-20T01:25:42.288Z,86.36
2019-03-20T01:28:50.431Z,87.44
2019-03-20T01:31:58.886Z,86.08
2019-03-20T01:35:07.001Z,85.76
2019-03-20T01:38:15.214Z,85.82
2019-03-20T01:41:23.669Z,86.03
2019-03-20T01:44:31.936Z,87.89
2019-03-20T01:47:40.576Z,88.04
2019-03-20T01:50:49.025Z,90.49
2019-03-20T01:53:58.079Z,88.99
2019-03-20T01:57:07.097Z,87.85
2019-03-20T02:00:17.246Z,87.59
2019-03-20T02:03:25.806Z,90.17
2019-03-20T02:06:33.846Z,91.02
2019-03-20T02:09:42.402Z,88.75
2019-03-20T02:12:51.532Z,88.54
2019-03-20T02:16:03.643Z,88.87
2019-03-20T02:19:13.289Z,88.18
2019-03-20T02:22:21.209Z,88.55
2019-03-20T02:25:29.218Z,87.14
2019-03-20T02:28:37.360Z,87.44
2019-03-20T02:31:45.455Z,89.00
2019-03-20T02:34:53.665Z,87.44
2019-03-20T02:38:08.555Z,86.25
2019-03-20T02:41:18.413Z,89.45
2019-03-20T02:44:27.852Z,91.71
2019-03-20T02:47:37.740Z,89.71
2019-03-20T02:50:47.841Z,88.45
2019-03-20T02:53:56.039Z,87.80
2019-03-20T02:57:04.104Z,90.65
2019-03-20T03:00:14.849Z,90.67
2019-03-20T03:03:23.836Z,90.61
2019-03-20T03:06:31.770Z,89.42
2019-03-20T03:09:40.937Z,87.98
2019-03-20T03:12:49.135Z,90.23
2019-03-20T03:15:57.422Z,90.78
2019-03-20T03:19:05.396Z,89.69
2019-03-20T03:22:13.534Z,90.49
2019-03-20T03:25:22.290Z,91.63
2019-03-20T03:28:33.405Z,92.29
2019-03-20T03:31:42.594Z,89.63
2019-03-20T03:34:50.872Z,90.17
2019-03-20T03:38:00.883Z,89.65
2019-03-20T03:41:10.062Z,89.28
2019-03-20T03:44:18.326Z,90.50
2019-03-20T03:47:26.409Z,90.62
2019-03-20T03:50:34.472Z,90.41
2019-03-20T03:53:42.327Z,89.72
2019-03-20T03:56:52.057Z,88.32
2019-03-20T04:00:00.477Z,87.68
2019-03-20T04:03:09.788Z,86.46
2019-03-20T04:06:19.598Z,86.99
2019-03-20T04:09:30.306Z,86.54
2019-03-20T04:12:37.864Z,85.66
2019-03-20T04:15:47.718Z,85.26
2019-03-20T04:18:56.028Z,87.69
2019-03-20T04:22:08.512Z,87.79
2019-03-20T04:25:16.460Z,87.26
2019-03-20T04:28:24.691Z,86.73
2019-03-20T04:31:34.260Z,87.08
2019-03-20T04:34:44.971Z,87.27
2019-03-20T04:37:53.042Z,87.14
2019-03-20T04:41:00.958Z,86.11
2019-03-20T04:44:08.846Z,85.72
2019-03-20T04:47:17.378Z,86.91
2019-03-20T04:50:25.589Z,86.94
2019-03-20T04:53:34.241Z,88.46
2019-03-20T04:56:42.946Z,88.87
2019-03-20T04:59:51.315Z,86.46
2019-03-20T05:03:01.075Z,85.50
2019-03-20T05:06:09.584Z,86.73
2019-03-20T05:09:18.279Z,86.60
2019-03-20T05:12:27.646Z,85.74
2019-03-20T05:15:35.559Z,85.20
2019-03-20T05:18:45.162Z,85.39
2019-03-20T05:21:53.450Z,85.33
2019-03-20T05:25:02.971Z,84.82
2019-03-20T05:28:13.822Z,84.04
2019-03-20T05:31:22.496Z,84.52
2019-03-20T05:34:30.632Z,84.81
2019-03-20T05:37:38.859Z,84.54
2019-03-20T05:40:47.059Z,84.83
2019-03-20T05:43:55.613Z,85.34
2019-03-20T05:47:10.143Z,85.34
2019-03-20T05:50:18.326Z,85.94
2019-03-20T05:53:26.284Z,85.00
2019-03-20T05:56:36.190Z,85.95
2019-03-20T05:59:44.603Z,85.34
2019-03-20T06:02:53.271Z,85.55
2019-03-20T06:06:01.593Z,85.57
2019-03-20T06:09:11.521Z,84.49
2019-03-20T06:12:21.454Z,84.38
2019-03-20T06:15:29.707Z,83.58
2019-03-20T06:18:37.958Z,83.97
2019-03-20T06:21:46.035Z,84.41
2019-03-20T06:24:53.914Z,84.00
2019-03-20T06:28:02.130Z,83.66
2019-03-20T06:31:10.118Z,83.28
2019-03-20T06:34:18.468Z,83.92
2019-03-20T06:37:32.637Z,83.67
2019-03-20T06:40:35.970Z,83.99
2019-03-20T06:43:43.888Z,84.25
2019-03-20T06:46:51.855Z,83.31
2019-03-20T06:50:02.743Z,83.71
2019-03-20T06:53:11.367Z,84.12
2019-03-20T06:56:19.333Z,83.12
2019-03-20T07:00:22.499Z,83.29
2019-03-20T07:03:42.311Z,81.95
2019-03-20T07:07:17.801Z,82.64
2019-03-20T07:11:16.615Z,82.21
2019-03-20T07:14:25.560Z,82.52
2019-03-20T07:17:33.446Z,81.65
2019-03-20T07:20:41.255Z,81.83
2019-03-20T07:23:49.760Z,80.96
2019-03-20T07:26:58.281Z,79.99
2019-03-20T07:30:10.024Z,80.46
2019-03-20T07:33:18.393Z,78.78
2019-03-20T07:36:26.914Z,77.85
2019-03-20T07:39:35.502Z,78.18
2019-03-20T07:42:44.711Z,76.65
2019-03-20T07:45:55.605Z,75.13
2019-03-20T07:49:06.797Z,73.49
2019-03-20T07:52:14.924Z,73.54
2019-03-20T07:55:25.670Z,74.05
2019-03-20T07:58:33.834Z,70.72
2019-03-20T08:01:41.877Z,70.75
2019-03-20T08:04:49.806Z,71.33
2019-03-20T08:08:07.246Z,70.59
2019-03-20T08:11:11.181Z,70.11
2019-03-20T08:14:22.488Z,69.92
2019-03-20T08:17:34.539Z,69.57
2019-03-20T08:20:42.548Z,66.96
2019-03-20T08:23:51.093Z,65.84
2019-03-20T08:27:00.999Z,65.32
2019-03-20T08:30:13.704Z,65.31
2019-03-20T08:33:21.589Z,64.86
2019-03-20T08:36:29.752Z,66.05
2019-03-20T08:39:39.091Z,65.58
2019-03-20T08:42:49.170Z,65.74
2019-03-20T08:46:02.339Z,65.29
2019-03-20T08:49:11.682Z,63.08
2019-03-20T08:52:21.283Z,63.62
2019-03-20T08:55:29.372Z,63.31
2019-03-20T08:58:37.742Z,60.45
2019-03-20T09:01:45.728Z,62.27
2019-03-20T09:04:54.001Z,59.35
2019-03-20T09:08:03.244Z,58.54
2019-03-20T09:11:11.154Z,58.03
2019-03-20T09:14:19.280Z,58.75
2019-03-20T09:17:27.568Z,57.42
2019-03-20T09:20:40.007Z,58.12
2019-03-20T09:23:47.940Z,58.15
2019-03-20T09:26:56.096Z,58.53
2019-03-20T09:30:04.720Z,57.45
2019-03-20T09:33:13.006Z,55.79
2019-03-20T09:36:20.961Z,55.99
2019-03-20T09:39:29.104Z,55.03
2019-03-20T09:42:36.983Z,51.95
2019-03-20T09:45:45.017Z,52.47
2019-03-20T09:48:54.042Z,52.60
2019-03-20T09:52:02.152Z,52.95
2019-03-20T09:55:10.544Z,51.50
2019-03-20T09:58:18.579Z,52.19
2019-03-20T10:01:26.923Z,52.53
2019-03-20T10:04:34.983Z,50.44
2019-03-20T10:07:44.364Z,51.14
2019-03-20T10:10:53.233Z,52.30
2019-03-20T10:14:01.060Z,51.64
2019-03-20T10:17:09.312Z,51.26
2019-03-20T10:20:19.670Z,51.20
2019-03-20T10:23:29.380Z,50.73
2019-03-20T10:26:37.378Z,49.50
2019-03-20T10:29:45.443Z,50.11
2019-03-20T10:32:54.257Z,49.42
2019-03-20T10:36:02.493Z,51.67
2019-03-20T10:39:11.952Z,48.80
2019-03-20T10:42:19.985Z,48.51
2019-03-20T10:45:28.679Z,49.34
2019-03-20T10:48:39.328Z,53.04
2019-03-20T10:51:47.613Z,50.65
2019-03-20T10:54:55.789Z,51.26
2019-03-20T10:58:03.557Z,49.97
2019-03-20T11:01:11.634Z,47.23
2019-03-20T11:04:19.961Z,48.72
2019-03-20T11:07:28.213Z,51.82
2019-03-20T11:10:36.635Z,48.87
2019-03-20T11:13:47.185Z,48.81
2019-03-20T11:16:56.844Z,47.81
2019-03-20T11:20:45.224Z,46.20
2019-03-20T11:23:54.860Z,46.85
2019-03-20T11:27:06.506Z,47.35
2019-03-20T11:30:25.729Z,47.63
2019-03-20T11:33:34.064Z,49.70
2019-03-20T11:36:42.254Z,45.84
2019-03-20T11:39:52.630Z,47.86
2019-03-20T11:43:03.719Z,47.34
2019-03-20T11:46:12.171Z,44.75
2019-03-20T11:49:21.020Z,43.46
2019-03-20T11:52:29.561Z,44.62
2019-03-20T11:55:38.211Z,44.26
2019-03-20T11:58:46.670Z,44.64
2019-03-20T12:01:54.671Z,46.62
2019-03-20T12:05:03.255Z,45.28
2019-03-20T12:08:11.383Z,46.23
2019-03-20T12:11:20.280Z,45.66
2019-03-20T12:14:30.635Z,44.93
2019-03-20T12:17:39.010Z,43.55
2019-03-20T12:20:47.620Z,43.97
2019-03-20T12:23:56.255Z,43.21
2019-03-20T12:27:14.760Z,45.46
2019-03-20T12:30:19.736Z,45.86
2019-03-20T12:33:27.889Z,46.34
2019-03-20T12:36:36.121Z,44.18
2019-03-20T12:39:52.799Z,42.96
2019-03-20T12:42:54.012Z,42.87
2019-03-20T12:46:03.792Z,44.49
2019-03-20T12:49:12.285Z,42.48
2019-03-20T12:52:20.634Z,44.21
2019-03-20T12:55:30.953Z,44.64
2019-03-20T12:58:38.499Z,44.09
2019-03-20T13:01:46.747Z,44.01
2019-03-20T13:04:54.811Z,43.91
2019-03-20T13:08:06.037Z,42.74
2019-03-20T13:11:12.897Z,41.67
2019-03-20T13:14:21.595Z,41.00
2019-03-20T13:17:29.374Z,39.29
2019-03-20T13:20:37.635Z,38.88
2019-03-20T13:23:45.741Z,38.79
2019-03-20T13:26:54.482Z,38.85
2019-03-20T13:30:02.885Z,39.42
2019-03-20T13:33:11.011Z,40.92
2019-03-20T13:36:18.947Z,40.29
2019-03-20T13:39:27.411Z,40.94
2019-03-20T13:42:35.498Z,40.49
2019-03-20T13:45:43.665Z,37.89
2019-03-20T13:48:51.786Z,37.45
2019-03-20T13:52:01.044Z,38.32
2019-03-20T13:55:09.479Z,38.63
2019-03-20T13:58:17.775Z,41.61
2019-03-20T14:01:28.009Z,37.01
2019-03-20T14:04:36.322Z,37.94
2019-03-20T14:07:45.653Z,37.16
2019-03-20T14:10:54.715Z,35.35
2019-03-20T14:14:03.137Z,35.01
2019-03-20T14:17:11.590Z,35.74
2019-03-20T14:20:23.556Z,36.16
2019-03-20T14:23:31.627Z,36.87
2019-03-20T14:26:39.733Z,35.21
2019-03-20T14:29:49.202Z,35.68
2019-03-20T14:32:57.594Z,37.27
2019-03-20T14:36:05.417Z,37.75
2019-03-20T14:39:13.353Z,36.40
2019-03-20T14:42:21.645Z,34.75
2019-03-20T14:45:29.915Z,34.08
2019-03-20T14:48:38.141Z,34.05
2019-03-20T14:51:46.413Z,34.47
2019-03-20T14:54:56.367Z,33.38
2019-03-20T14:58:04.446Z,35.15
2019-03-20T15:01:12.611Z,35.52
2019-03-20T15:04:20.707Z,35.88
2019-03-20T15:07:28.796Z,38.24
2019-03-20T15:10:45.715Z,35.74
2019-03-20T15:13:46.974Z,37.79
2019-03-20T15:16:55.220Z,35.53
2019-03-20T15:20:03.570Z,38.31
2019-03-20T15:23:11.760Z,37.92
2019-03-20T15:26:20.566Z,37.62
2019-03-20T15:29:29.241Z,38.01
2019-03-20T15:32:37.439Z,39.66
2019-03-20T15:35:46.148Z,38.47
2019-03-20T15:38:54.111Z,39.16
2019-03-20T15:42:03.195Z,38.39
2019-03-20T15:45:16.392Z,39.48
2019-03-20T15:48:24.785Z,38.78
2019-03-20T15:51:34.225Z,37.98
2019-03-20T15:54:43.173Z,38.35
2019-03-20T15:57:51.560Z,36.75
2019-03-20T16:00:59.819Z,37.09
2019-03-20T16:04:09.495Z,38.02
2019-03-20T16:07:17.919Z,38.71
2019-03-20T16:10:25.963Z,38.78
2019-03-20T16:13:34.378Z,37.96
2019-03-20T16:16:42.527Z,37.70
2019-03-20T16:19:52.184Z,36.34
2019-03-20T16:22:59.656Z,37.37
2019-03-20T16:26:06.864Z,38.25
2019-03-20T16:29:14.104Z,39.66
2019-03-20T16:32:21.272Z,38.59
2019-03-20T16:35:28.859Z,41.10
2019-03-20T16:38:35.822Z,42.94
2019-03-20T16:41:43.002Z,45.00
2019-03-20T16:44:50.012Z,41.02
2019-03-20T16:47:57.471Z,45.73
2019-03-20T16:51:07.355Z,47.07
2019-03-20T16:54:14.369Z,47.73
2019-03-20T16:57:21.921Z,50.30
2019-03-20T17:00:31.239Z,54.53
2019-03-20T17:03:38.488Z,54.01
2019-03-20T17:06:48.218Z,56.42
2019-03-20T17:09:55.121Z,56.40
2019-03-20T17:13:02.849Z,55.91
2019-03-20T17:16:09.685Z,57.42
2019-03-20T17:19:16.614Z,60.77
2019-03-20T17:22:23.433Z,59.32
2019-03-20T17:25:30.835Z,59.09
2019-03-20T17:28:37.693Z,62.57
2019-03-20T17:31:44.571Z,62.93
2019-03-20T17:34:53.533Z,63.00
2019-03-20T17:38:04.740Z,64.24
2019-03-20T17:41:11.632Z,64.99
2019-03-20T17:44:18.552Z,64.45
2019-03-20T17:47:25.423Z,65.37
2019-03-20T17:50:32.506Z,64.90
2019-03-20T17:53:39.518Z,65.48
2019-03-20T17:56:46.438Z,65.85
2019-03-20T17:59:55.294Z,65.94
2019-03-20T18:03:05.087Z,65.08
2019-03-20T18:06:12.164Z,64.19
2019-03-20T18:09:19.096Z,64.29
2019-03-20T18:12:25.946Z,67.62
2019-03-20T18:15:32.844Z,71.05
2019-03-20T18:18:39.687Z,67.69
2019-03-20T18:21:46.604Z,70.80
2019-03-20T18:24:53.691Z,75.59
2019-03-20T18:28:00.595Z,68.86
2019-03-20T18:31:07.511Z,68.21
2019-03-20T18:34:14.851Z,67.60
2019-03-20T18:37:22.016Z,67.13
2019-03-20T18:40:29.058Z,69.00
2019-03-20T18:43:35.896Z,69.04
2019-03-20T18:46:42.860Z,69.96
2019-03-20T18:49:49.894Z,73.87
2019-03-20T18:52:56.791Z,73.82
2019-03-20T18:56:03.759Z,71.93
2019-03-20T18:59:10.735Z,70.66
2019-03-20T19:02:18.579Z,70.68
2019-03-20T19:05:33.457Z,71.33
2019-03-20T19:08:40.287Z,76.47
2019-03-20T19:11:47.463Z,73.71
2019-03-20T19:14:54.375Z,76.73
2019-03-20T19:18:01.257Z,77.35
2019-03-20T19:21:09.184Z,78.03
2019-03-20T19:24:16.117Z,77.25
2019-03-20T19:27:23.010Z,75.89
2019-03-20T19:30:30.044Z,76.89
2019-03-20T19:33:36.893Z,74.77
2019-03-20T19:36:43.791Z,73.85
2019-03-20T19:39:50.759Z,70.05
2019-03-20T19:43:01.862Z,73.84
2019-03-20T19:46:08.697Z,71.46
2019-03-20T19:49:15.547Z,70.72
2019-03-20T19:52:22.570Z,69.66
2019-03-20T19:55:29.616Z,68.42
2019-03-20T19:58:36.598Z,69.68
2019-03-20T20:01:43.534Z,69.59
2019-03-20T20:04:53.144Z,70.08
2019-03-20T20:08:00.165Z,69.62
2019-03-20T20:11:07.153Z,69.04
2019-03-20T20:14:14.109Z,69.47
2019-03-20T20:17:20.997Z,68.53
2019-03-20T20:20:28.063Z,68.69
2019-03-20T20:23:34.891Z,68.53
2019-03-20T20:26:41.827Z,68.51
2019-03-20T20:29:49.870Z,68.94
2019-03-20T20:32:56.733Z,69.25
2019-03-20T20:36:03.659Z,70.13
2019-03-20T20:39:13.480Z,69.45
2019-03-20T20:42:20.323Z,70.14
2019-03-20T20:45:28.921Z,70.75
2019-03-20T20:48:35.790Z,71.52
2019-03-20T20:51:44.827Z,70.28
2019-03-20T20:54:53.514Z,70.78
2019-03-20T20:58:02.278Z,70.18
2019-03-20T21:01:10.352Z,68.87
2019-03-20T21:04:18.740Z,70.04
2019-03-20T21:07:32.334Z,69.68
2019-03-20T21:10:40.820Z,69.39
2019-03-20T21:13:49.392Z,68.98
2019-03-20T21:16:58.609Z,69.29
2019-03-20T21:20:07.810Z,68.98
2019-03-20T21:24:10.380Z,68.85
2019-03-20T21:28:21.732Z,69.94
2019-03-20T21:31:46.588Z,69.47
2019-03-20T21:36:03.425Z,69.99
2019-03-20T21:39:14.600Z,69.76
2019-03-20T21:43:19.921Z,69.44
2019-03-20T21:47:18.244Z,69.35
2019-03-20T21:51:18.198Z,69.94
2019-03-20T21:55:29.029Z,69.50
2019-03-20T21:58:56.697Z,69.18
2019-03-20T22:02:45.652Z,69.72
2019-03-20T22:07:12.772Z,68.87
2019-03-20T22:11:06.235Z,69.02
2019-03-20T22:14:15.494Z,70.46
2019-03-20T22:19:02.530Z,70.65
2019-03-20T22:22:49.323Z,70.89
2019-03-20T22:27:04.854Z,70.03
2019-03-20T22:30:14.095Z,70.23
2019-03-20T22:34:16.953Z,70.57
2019-03-20T22:37:26.404Z,70.83
2019-03-20T22:41:50.859Z,70.48
2019-03-20T22:45:35.007Z,70.27
2019-03-20T22:49:19.141Z,70.37
2019-03-20T22:53:34.981Z,70.58
2019-03-20T22:57:15.893Z,70.65
2019-03-20T23:00:28.471Z,71.29
2019-03-20T23:03:44.450Z,70.94
2019-03-20T23:06:53.704Z,70.66
2019-03-20T23:10:02.915Z,70.61
2019-03-20T23:13:18.770Z,70.83
2019-03-20T23:16:24.688Z,71.21
2019-03-20T23:19:36.737Z,70.88
2019-03-20T23:22:45.983Z,71.91
2019-03-20T23:25:54.997Z,72.02
2019-03-20T23:29:05.813Z,71.45
2019-03-20T23:32:14.911Z,71.24
2019-03-20T23:35:24.628Z,71.40
2019-03-20T23:38:33.667Z,71.89
2019-03-20T23:41:43.990Z,71.56
2019-03-20T23:44:53.461Z,71.81
2019-03-20T23:48:17.188Z,71.51
2019-03-20T23:51:27.635Z,71.67
2019-03-20T23:54:52.362Z,71.79
2019-03-20T23:58:01.208Z,72.29
